createdAt,value
2022-12-03T00:00:25.225Z,95968.38
2022-12-03T00:02:23.481Z,95978.81
2022-12-03T00:04:22.816Z,95980.09
2022-12-03T00:06:21.007Z,95973.63
2022-12-03T00:08:19.210Z,95968.91
2022-12-03T00:10:17.402Z,95976.44
2022-12-03T00:12:15.670Z,95991.03
2022-12-03T00:14:13.948Z,95991.22
2022-12-03T00:16:13.660Z,95997.84
2022-12-03T00:18:11.970Z,95994.63
2022-12-03T00:20:12.973Z,95996.56
2022-12-03T00:22:12.827Z,95993.13
2022-12-03T00:24:11.259Z,95995.78
2022-12-03T00:26:09.416Z,96001.00
2022-12-03T00:28:07.700Z,96000.94
2022-12-03T00:30:07.952Z,95988.06
2022-12-03T00:32:07.648Z,95996.41
2022-12-03T00:34:05.929Z,95998.16
2022-12-03T00:36:04.138Z,95997.81
2022-12-03T00:38:02.407Z,96008.09
2022-12-03T00:40:00.721Z,96005.41
2022-12-03T00:41:59.697Z,96007.34
2022-12-03T00:43:57.985Z,96004.13
2022-12-03T00:45:56.353Z,96007.03
2022-12-03T00:47:55.909Z,96007.28
2022-12-03T00:49:54.199Z,96007.44
2022-12-03T00:51:52.492Z,96013.72
2022-12-03T00:53:50.695Z,96017.03
2022-12-03T00:55:50.725Z,96014.41
2022-12-03T00:57:48.888Z,96024.94
2022-12-03T00:59:47.198Z,96022.31
2022-12-03T01:01:45.515Z,96020.63
2022-12-03T01:03:45.219Z,96027.59
2022-12-03T01:05:43.426Z,96020.72
2022-12-03T01:07:41.697Z,96026.63
2022-12-03T01:09:40.185Z,96026.53
2022-12-03T01:11:41.487Z,96031.28
2022-12-03T01:13:40.139Z,96024.72
2022-12-03T01:15:38.362Z,96031.16
2022-12-03T01:17:36.613Z,96035.44
2022-12-03T01:19:36.423Z,96036.63
2022-12-03T01:21:35.092Z,96032.16
2022-12-03T01:23:33.146Z,96038.72
2022-12-03T01:25:31.635Z,96037.56
2022-12-03T01:27:29.932Z,96042.78
2022-12-03T01:29:28.578Z,96047.38
2022-12-03T01:31:44.540Z,96041.28
2022-12-03T01:33:42.738Z,96041.19
2022-12-03T01:35:42.400Z,96046.47
2022-12-03T01:37:40.539Z,96045.00
2022-12-03T01:39:39.099Z,96044.19
2022-12-03T01:41:39.519Z,96046.09
2022-12-03T01:43:38.347Z,96038.97
2022-12-03T01:45:36.790Z,96033.84
2022-12-03T01:47:37.705Z,96032.06
2022-12-03T01:49:41.181Z,96038.31
2022-12-03T01:51:43.358Z,96034.56
2022-12-03T01:53:41.922Z,96044.19
2022-12-03T01:55:40.247Z,96039.63
2022-12-03T01:57:42.879Z,96041.00
2022-12-03T01:59:41.064Z,96037.41
2022-12-03T02:01:39.439Z,96029.88
2022-12-03T02:03:37.971Z,96028.16
2022-12-03T02:05:36.356Z,96028.81
2022-12-03T02:07:36.054Z,96024.81
2022-12-03T02:09:34.188Z,96030.28
2022-12-03T02:11:37.005Z,96040.78
2022-12-03T02:13:35.317Z,96036.50
2022-12-03T02:15:33.816Z,96035.56
2022-12-03T02:17:32.478Z,96031.53
2022-12-03T02:19:31.073Z,96033.09
2022-12-03T02:21:37.075Z,96031.44
2022-12-03T02:23:44.180Z,96035.81
2022-12-03T02:25:43.840Z,96033.72
2022-12-03T02:27:42.601Z,96032.97
2022-12-03T02:29:41.041Z,96024.22
2022-12-03T02:31:39.517Z,96032.06
2022-12-03T02:33:37.743Z,96033.88
2022-12-03T02:35:38.406Z,96024.00
2022-12-03T02:37:38.541Z,96023.00
2022-12-03T02:39:41.722Z,96024.03
2022-12-03T02:41:58.933Z,96013.16
2022-12-03T02:43:57.090Z,96027.88
2022-12-03T02:45:58.395Z,96029.78
2022-12-03T02:47:59.289Z,96031.25
2022-12-03T02:49:59.039Z,96027.34
2022-12-03T02:51:57.172Z,96033.50
2022-12-03T02:53:58.046Z,96038.66
2022-12-03T02:55:59.086Z,96032.66
2022-12-03T02:57:59.176Z,96030.19
2022-12-03T02:59:57.590Z,96022.38
2022-12-03T03:01:55.867Z,96025.22
2022-12-03T03:03:54.685Z,96025.53
2022-12-03T03:05:56.730Z,96023.84
2022-12-03T03:07:55.398Z,96024.69
2022-12-03T03:09:54.053Z,96019.63
2022-12-03T03:11:52.196Z,96024.09
2022-12-03T03:13:52.045Z,96033.97
2022-12-03T03:15:50.587Z,96035.91
2022-12-03T03:17:49.008Z,96027.22
2022-12-03T03:19:47.190Z,96016.22
2022-12-03T03:21:45.386Z,96016.06
2022-12-03T03:23:43.647Z,96020.28
2022-12-03T03:25:44.885Z,96018.63
2022-12-03T03:27:43.914Z,96014.31
2022-12-03T03:29:43.529Z,96009.97
2022-12-03T03:31:43.495Z,96012.94
2022-12-03T03:33:44.893Z,96014.09
2022-12-03T03:35:43.720Z,96013.19
2022-12-03T03:37:43.505Z,96020.06
2022-12-03T03:39:41.835Z,96020.06
2022-12-03T03:41:40.417Z,96024.69
2022-12-03T03:43:40.170Z,96032.66
2022-12-03T03:45:39.817Z,96031.72
2022-12-03T03:47:38.570Z,96026.53
2022-12-03T03:49:37.804Z,96029.22
2022-12-03T03:51:37.474Z,96037.28
2022-12-03T03:53:36.737Z,96035.44
2022-12-03T03:55:35.816Z,96036.66
2022-12-03T03:57:34.314Z,96038.31
2022-12-03T03:59:32.642Z,96032.75
2022-12-03T04:01:33.075Z,96040.63
2022-12-03T04:03:31.474Z,96039.00
2022-12-03T04:05:29.910Z,96035.72
2022-12-03T04:07:28.874Z,96040.25
2022-12-03T04:09:27.221Z,96040.44
2022-12-03T04:11:43.250Z,96036.44
2022-12-03T04:13:40.507Z,96045.50
2022-12-03T04:15:38.780Z,96052.28
2022-12-03T04:17:38.427Z,96056.75
2022-12-03T04:19:35.754Z,96055.25
2022-12-03T04:21:51.757Z,96062.28
2022-12-03T04:23:50.010Z,96060.44
2022-12-03T04:26:05.910Z,96051.69
2022-12-03T04:28:22.011Z,96057.84
2022-12-03T04:30:20.407Z,96063.91
2022-12-03T04:32:36.068Z,96063.19
2022-12-03T04:34:53.803Z,96068.56
2022-12-03T04:36:52.398Z,96072.78
2022-12-03T04:38:50.615Z,96071.03
2022-12-03T04:41:05.151Z,96078.75
2022-12-03T04:43:03.452Z,96076.94
2022-12-03T04:45:01.760Z,96081.13
2022-12-03T04:46:59.213Z,96077.63
2022-12-03T04:48:57.375Z,96073.09
2022-12-03T04:50:57.124Z,96072.25
2022-12-03T04:52:55.375Z,96064.59
2022-12-03T04:54:53.844Z,96064.72
2022-12-03T04:56:52.280Z,96059.22
2022-12-03T04:58:50.497Z,96068.03
2022-12-03T05:00:48.661Z,96057.50
2022-12-03T05:02:46.951Z,96062.81
2022-12-03T05:04:45.216Z,96063.81
2022-12-03T05:06:45.158Z,96067.19
2022-12-03T05:08:43.302Z,96067.09
2022-12-03T05:10:41.554Z,96074.09
2022-12-03T05:12:39.962Z,96069.84
2022-12-03T05:14:38.228Z,96081.31
2022-12-03T05:16:36.641Z,96072.56
2022-12-03T05:18:34.986Z,96072.47
2022-12-03T05:20:49.838Z,96072.56
2022-12-03T05:22:52.757Z,96070.69
2022-12-03T05:24:51.190Z,96083.72
2022-12-03T05:26:49.573Z,96087.13
2022-12-03T05:28:47.874Z,96089.63
2022-12-03T05:30:46.163Z,96078.38
2022-12-03T05:32:44.326Z,96080.81
2022-12-03T05:34:42.783Z,96074.47
2022-12-03T05:36:41.101Z,96077.97
2022-12-03T05:38:40.724Z,96084.38
2022-12-03T05:40:39.066Z,96081.81
2022-12-03T05:42:54.357Z,96088.78
2022-12-03T05:44:52.773Z,96090.84
2022-12-03T05:46:51.429Z,96085.66
2022-12-03T05:48:49.764Z,96092.63
2022-12-03T05:50:47.992Z,96093.84
2022-12-03T05:52:46.296Z,96101.59
2022-12-03T05:54:46.043Z,96105.19
2022-12-03T05:56:44.147Z,96099.38
2022-12-03T05:58:42.390Z,96094.31
2022-12-03T06:00:42.654Z,96095.16
2022-12-03T06:02:41.427Z,96104.66
2022-12-03T06:04:39.719Z,96112.47
2022-12-03T06:06:37.887Z,96115.84
2022-12-03T06:08:36.094Z,96109.81
2022-12-03T06:10:35.711Z,96107.94
2022-12-03T06:12:34.025Z,96116.59
2022-12-03T06:14:32.427Z,96118.22
2022-12-03T06:16:30.799Z,96124.94
2022-12-03T06:18:29.219Z,96120.41
2022-12-03T06:20:27.451Z,96116.72
2022-12-03T06:22:25.789Z,96120.09
2022-12-03T06:24:23.915Z,96125.09
2022-12-03T06:26:23.503Z,96122.41
2022-12-03T06:28:21.674Z,96125.94
2022-12-03T06:30:20.150Z,96132.22
2022-12-03T06:32:18.507Z,96127.16
2022-12-03T06:34:16.747Z,96128.84
2022-12-03T06:36:17.799Z,96131.50
2022-12-03T06:38:19.619Z,96129.78
2022-12-03T06:40:18.082Z,96130.38
2022-12-03T06:42:17.680Z,96121.34
2022-12-03T06:44:15.855Z,96125.31
2022-12-03T06:46:14.177Z,96121.72
2022-12-03T06:48:12.518Z,96121.38
2022-12-03T06:50:11.386Z,96130.09
2022-12-03T06:52:09.670Z,96126.16
2022-12-03T06:54:08.052Z,96126.25
2022-12-03T06:56:07.042Z,96122.78
2022-12-03T06:58:06.749Z,96128.75
2022-12-03T07:00:10.109Z,96126.09
2022-12-03T07:02:08.536Z,96129.59
2022-12-03T07:04:07.234Z,96132.22
2022-12-03T07:06:05.827Z,96131.50
2022-12-03T07:08:04.291Z,96133.28
2022-12-03T07:10:02.541Z,96137.13
2022-12-03T07:12:00.979Z,96146.28
2022-12-03T07:14:05.627Z,96147.81
2022-12-03T07:16:04.193Z,96143.44
2022-12-03T07:18:03.731Z,96141.72
2022-12-03T07:20:01.908Z,96141.06
2022-12-03T07:22:00.266Z,96145.59
2022-12-03T07:23:58.639Z,96150.94
2022-12-03T07:25:56.804Z,96146.63
2022-12-03T07:27:55.116Z,96144.72
2022-12-03T07:29:54.712Z,96149.09
2022-12-03T07:31:53.255Z,96140.53
2022-12-03T07:33:51.578Z,96153.31
2022-12-03T07:35:49.916Z,96154.00
2022-12-03T07:37:48.053Z,96155.16
2022-12-03T07:39:46.189Z,96157.22
2022-12-03T07:41:44.371Z,96160.66
2022-12-03T07:43:42.783Z,96159.63
2022-12-03T07:45:42.295Z,96162.69
2022-12-03T07:47:40.587Z,96167.28
2022-12-03T07:49:38.993Z,96159.78
2022-12-03T07:51:37.238Z,96162.13
2022-12-03T07:53:36.156Z,96171.50
2022-12-03T07:55:34.468Z,96157.22
2022-12-03T07:57:32.761Z,96165.06
2022-12-03T07:59:31.147Z,96159.38
2022-12-03T08:01:30.716Z,96158.06
2022-12-03T08:03:28.924Z,96160.22
2022-12-03T08:05:29.893Z,96159.69
2022-12-03T08:07:28.259Z,96161.28
2022-12-03T08:09:26.672Z,96158.31
2022-12-03T08:11:25.076Z,96169.97
2022-12-03T08:13:23.352Z,96169.50
2022-12-03T08:15:24.955Z,96169.88
2022-12-03T08:17:26.109Z,96164.13
2022-12-03T08:19:24.504Z,96170.50
2022-12-03T08:21:23.259Z,96168.44
2022-12-03T08:23:22.863Z,96177.63
2022-12-03T08:25:24.666Z,96171.22
2022-12-03T08:27:22.791Z,96180.16
2022-12-03T08:29:21.441Z,96179.78
2022-12-03T08:31:27.993Z,96184.25
2022-12-03T08:33:33.743Z,96179.78
2022-12-03T08:35:32.541Z,96192.28
2022-12-03T08:37:31.360Z,96193.16
2022-12-03T08:39:34.530Z,96188.84
2022-12-03T08:41:50.177Z,96194.34
2022-12-03T08:43:49.120Z,96185.28
2022-12-03T08:45:49.843Z,96183.81
2022-12-03T08:47:48.203Z,96191.56
2022-12-03T08:49:56.098Z,96188.97
2022-12-03T08:51:58.535Z,96187.84
2022-12-03T08:54:13.968Z,96181.25
2022-12-03T08:56:21.830Z,96182.97
2022-12-03T08:58:24.703Z,96183.72
2022-12-03T09:00:25.228Z,96181.16
2022-12-03T09:02:30.107Z,96184.53
2022-12-03T09:04:32.267Z,96184.72
2022-12-03T09:06:32.034Z,96184.34
2022-12-03T09:08:30.302Z,96180.38
2022-12-03T09:10:28.485Z,96179.63
2022-12-03T09:12:26.815Z,96178.84
2022-12-03T09:14:29.172Z,96179.78
2022-12-03T09:16:27.537Z,96180.69
2022-12-03T09:18:25.814Z,96183.59
2022-12-03T09:20:26.334Z,96176.00
2022-12-03T09:22:25.819Z,96173.72
2022-12-03T09:24:24.265Z,96178.19
2022-12-03T09:26:28.203Z,96176.75
2022-12-03T09:28:27.791Z,96175.41
2022-12-03T09:30:26.145Z,96176.81
2022-12-03T09:32:24.441Z,96177.44
2022-12-03T09:34:25.540Z,96181.81
2022-12-03T09:36:23.994Z,96181.72
2022-12-03T09:38:23.506Z,96177.06
2022-12-03T09:40:22.344Z,96176.25
2022-12-03T09:42:20.669Z,96175.09
2022-12-03T09:44:19.334Z,96167.41
2022-12-03T09:46:18.104Z,96168.44
2022-12-03T09:48:17.897Z,96165.47
2022-12-03T09:50:30.638Z,96167.34
2022-12-03T09:52:33.108Z,96156.22
2022-12-03T09:54:33.788Z,96159.25
2022-12-03T09:56:32.734Z,96154.00
2022-12-03T09:58:34.727Z,96150.22
2022-12-03T10:00:34.099Z,96155.09
2022-12-03T10:02:34.351Z,96149.53
2022-12-03T10:04:33.183Z,96148.50
2022-12-03T10:06:32.908Z,96147.34
2022-12-03T10:08:34.623Z,96140.50
2022-12-03T10:10:36.659Z,96139.94
2022-12-03T10:12:35.646Z,96139.16
2022-12-03T10:14:33.960Z,96141.03
2022-12-03T10:16:32.475Z,96132.41
2022-12-03T10:18:41.315Z,96142.13
2022-12-03T10:20:40.133Z,96140.59
2022-12-03T10:22:40.686Z,96139.16
2022-12-03T10:24:39.763Z,96126.53
2022-12-03T10:26:41.665Z,96124.56
2022-12-03T10:28:42.134Z,96123.19
2022-12-03T10:30:54.078Z,96125.91
2022-12-03T10:32:52.611Z,96126.22
2022-12-03T10:34:53.056Z,96126.25
2022-12-03T10:37:10.797Z,96125.91
2022-12-03T10:39:12.345Z,96133.75
2022-12-03T10:41:22.971Z,96129.09
2022-12-03T10:43:26.413Z,96122.44
2022-12-03T10:45:24.694Z,96125.91
2022-12-03T10:47:25.394Z,96121.84
2022-12-03T10:49:23.773Z,96121.03
2022-12-03T10:51:22.668Z,96118.84
2022-12-03T10:53:22.880Z,96116.06
2022-12-03T10:55:21.305Z,96107.19
2022-12-03T10:57:19.404Z,96111.78
2022-12-03T10:59:22.273Z,96116.50
2022-12-03T11:01:23.610Z,96106.50
2022-12-03T11:03:24.753Z,96106.16
2022-12-03T11:05:27.432Z,96104.38
2022-12-03T11:07:26.346Z,96092.09
2022-12-03T11:09:28.469Z,96103.59
2022-12-03T11:11:29.041Z,96108.66
2022-12-03T11:13:49.568Z,96105.44
2022-12-03T11:15:49.592Z,96104.88
2022-12-03T11:17:50.984Z,96103.88
2022-12-03T11:19:50.988Z,96105.72
2022-12-03T11:22:18.277Z,96106.34
2022-12-03T11:24:22.125Z,96105.50
2022-12-03T11:27:01.388Z,96097.81
2022-12-03T11:29:00.703Z,96105.66
2022-12-03T11:31:02.593Z,96106.72
2022-12-03T11:33:02.158Z,96099.78
2022-12-03T11:35:00.598Z,96100.44
2022-12-03T11:37:25.613Z,96096.25
2022-12-03T11:39:57.311Z,96097.66
2022-12-03T11:42:38.955Z,96089.78
2022-12-03T11:44:37.343Z,96090.34
2022-12-03T11:46:45.658Z,96088.00
2022-12-03T11:48:46.461Z,96095.59
2022-12-03T11:50:51.217Z,96090.63
2022-12-03T11:52:53.631Z,96086.97
2022-12-03T11:54:55.397Z,96090.63
2022-12-03T11:56:56.175Z,96082.28
2022-12-03T11:59:00.018Z,96081.53
2022-12-03T12:01:05.609Z,96084.13
2022-12-03T12:03:05.705Z,96089.38
2022-12-03T12:05:22.685Z,96095.81
2022-12-03T12:07:35.001Z,96083.25
2022-12-03T12:09:54.075Z,96078.84
2022-12-03T12:11:52.664Z,96085.41
2022-12-03T12:13:52.701Z,96084.78
2022-12-03T12:15:50.972Z,96086.97
2022-12-03T12:17:49.347Z,96086.03
2022-12-03T12:19:54.229Z,96084.28
2022-12-03T12:21:53.207Z,96074.06
2022-12-03T12:23:51.537Z,96071.53
2022-12-03T12:25:54.185Z,96069.59
2022-12-03T12:27:53.979Z,96068.09
2022-12-03T12:29:55.320Z,96074.00
2022-12-03T12:32:01.062Z,96068.13
2022-12-03T12:33:59.387Z,96065.25
2022-12-03T12:35:59.085Z,96076.38
2022-12-03T12:38:11.090Z,96070.31
2022-12-03T12:40:17.599Z,96070.38
2022-12-03T12:42:34.890Z,96065.16
2022-12-03T12:44:33.570Z,96072.00
2022-12-03T12:46:47.711Z,96066.84
2022-12-03T12:48:46.384Z,96073.78
2022-12-03T12:50:46.324Z,96073.59
2022-12-03T12:52:52.765Z,96074.34
2022-12-03T12:54:51.045Z,96075.56
2022-12-03T12:56:51.105Z,96072.56
2022-12-03T12:58:49.441Z,96071.81
2022-12-03T13:00:51.606Z,96074.69
2022-12-03T13:02:57.915Z,96077.41
2022-12-03T13:04:56.294Z,96074.56
2022-12-03T13:06:55.799Z,96067.38
2022-12-03T13:08:56.208Z,96063.75
2022-12-03T13:10:55.693Z,96066.28
2022-12-03T13:12:53.961Z,96073.19
2022-12-03T13:14:53.160Z,96062.06
2022-12-03T13:16:52.984Z,96067.44
2022-12-03T13:18:55.554Z,96058.69
2022-12-03T13:20:54.089Z,96063.53
2022-12-03T13:22:52.230Z,96061.09
2022-12-03T13:24:53.376Z,96064.84
2022-12-03T13:26:51.586Z,96058.56
2022-12-03T13:28:50.497Z,96064.50
2022-12-03T13:30:48.815Z,96054.47
2022-12-03T13:32:47.091Z,96055.00
2022-12-03T13:34:46.609Z,96051.16
2022-12-03T13:36:50.739Z,96049.47
2022-12-03T13:38:55.244Z,96062.94
2022-12-03T13:41:01.198Z,96059.47
2022-12-03T13:42:58.762Z,96056.09
2022-12-03T13:44:58.053Z,96066.06
2022-12-03T13:46:56.375Z,96065.22
2022-12-03T13:48:58.704Z,96061.09
2022-12-03T13:51:01.632Z,96060.31
2022-12-03T13:53:01.936Z,96059.50
2022-12-03T13:55:00.127Z,96057.72
2022-12-03T13:57:00.395Z,96063.88
2022-12-03T13:59:00.484Z,96060.75
2022-12-03T14:00:59.012Z,96064.38
2022-12-03T14:02:57.397Z,96059.91
2022-12-03T14:05:00.233Z,96062.44
2022-12-03T14:06:59.123Z,96061.09
2022-12-03T14:08:57.343Z,96068.00
2022-12-03T14:11:00.247Z,96067.84
2022-12-03T14:12:59.581Z,96068.84
2022-12-03T14:14:58.560Z,96064.28
2022-12-03T14:16:59.910Z,96076.78
2022-12-03T14:18:58.488Z,96075.25
2022-12-03T14:20:56.851Z,96071.03
2022-12-03T14:22:59.212Z,96073.09
2022-12-03T14:24:58.842Z,96080.97
2022-12-03T14:26:57.209Z,96082.59
2022-12-03T14:28:56.833Z,96073.16
2022-12-03T14:30:59.524Z,96079.16
2022-12-03T14:32:58.072Z,96077.44
2022-12-03T14:34:56.762Z,96086.38
2022-12-03T14:36:55.127Z,96086.22
2022-12-03T14:38:53.679Z,96087.22
2022-12-03T14:40:51.924Z,96094.97
2022-12-03T14:42:49.084Z,96099.09
2022-12-03T14:44:50.305Z,96092.22
2022-12-03T14:46:51.586Z,96098.44
2022-12-03T14:48:52.314Z,96097.66
2022-12-03T14:50:50.471Z,96101.22
2022-12-03T14:52:49.378Z,96104.31
2022-12-03T14:54:47.757Z,96107.81
2022-12-03T14:56:46.037Z,96108.19
2022-12-03T14:58:44.304Z,96104.16
2022-12-03T15:00:43.845Z,96100.28
2022-12-03T15:02:42.219Z,96104.91
2022-12-03T15:04:41.192Z,96115.38
2022-12-03T15:06:39.399Z,96120.59
2022-12-03T15:08:37.717Z,96120.59
2022-12-03T15:10:35.864Z,96110.31
2022-12-03T15:12:34.144Z,96123.31
2022-12-03T15:14:32.399Z,96120.44
2022-12-03T15:16:32.100Z,96114.38
2022-12-03T15:18:31.297Z,96125.72
2022-12-03T15:20:29.846Z,96114.28
2022-12-03T15:22:28.238Z,96116.03
2022-12-03T15:24:26.483Z,96119.66
2022-12-03T15:26:24.740Z,96118.25
2022-12-03T15:28:23.247Z,96112.34
2022-12-03T15:30:21.450Z,96124.66
2022-12-03T15:32:21.202Z,96112.50
2022-12-03T15:34:22.928Z,96125.81
2022-12-03T15:36:21.407Z,96125.03
2022-12-03T15:38:19.978Z,96127.84
2022-12-03T15:40:18.179Z,96119.06
2022-12-03T15:42:16.609Z,96122.53
2022-12-03T15:44:17.297Z,96119.13
2022-12-03T15:46:15.641Z,96121.59
2022-12-03T15:48:15.658Z,96124.19
2022-12-03T15:50:15.017Z,96133.91
2022-12-03T15:52:13.323Z,96128.84
2022-12-03T15:54:12.423Z,96132.97
2022-12-03T15:56:12.093Z,96126.66
2022-12-03T15:58:10.683Z,96124.03
2022-12-03T16:00:12.068Z,96126.13
2022-12-03T16:02:10.442Z,96128.84
2022-12-03T16:04:10.322Z,96129.00
2022-12-03T16:06:09.156Z,96129.16
2022-12-03T16:08:07.612Z,96127.53
2022-12-03T16:10:07.093Z,96122.25
2022-12-03T16:12:14.278Z,96128.22
2022-12-03T16:14:12.662Z,96122.94
2022-12-03T16:16:10.971Z,96121.94
2022-12-03T16:18:09.387Z,96123.47
2022-12-03T16:20:11.119Z,96136.69
2022-12-03T16:22:09.390Z,96129.69
2022-12-03T16:24:08.221Z,96130.53
2022-12-03T16:26:06.708Z,96132.19
2022-12-03T16:28:05.292Z,96132.28
2022-12-03T16:30:04.610Z,96129.59
2022-12-03T16:32:02.911Z,96131.13
2022-12-03T16:34:01.176Z,96137.25
2022-12-03T16:36:00.790Z,96136.44
2022-12-03T16:37:59.137Z,96133.50
2022-12-03T16:39:57.535Z,96135.94
2022-12-03T16:41:55.827Z,96136.63
2022-12-03T16:43:54.234Z,96139.25
2022-12-03T16:46:02.571Z,96138.31
2022-12-03T16:48:02.686Z,96146.72
2022-12-03T16:50:01.144Z,96139.25
2022-12-03T16:52:00.838Z,96141.00
2022-12-03T16:53:59.413Z,96136.53
2022-12-03T16:55:57.584Z,96139.25
2022-12-03T16:57:56.007Z,96143.69
2022-12-03T16:59:54.306Z,96144.63
2022-12-03T17:01:52.941Z,96136.09
2022-12-03T17:03:51.300Z,96139.88
2022-12-03T17:05:49.999Z,96147.88
2022-12-03T17:07:49.640Z,96156.13
2022-12-03T17:09:48.051Z,96151.84
2022-12-03T17:11:46.374Z,96156.53
2022-12-03T17:13:44.728Z,96160.50
2022-12-03T17:15:43.287Z,96162.19
2022-12-03T17:17:41.625Z,96157.72
2022-12-03T17:19:41.661Z,96170.22
2022-12-03T17:21:39.862Z,96156.22
2022-12-03T17:23:39.594Z,96155.28
2022-12-03T17:25:37.789Z,96161.13
2022-12-03T17:27:38.688Z,96156.59
2022-12-03T17:29:41.784Z,96161.88
2022-12-03T17:31:42.529Z,96164.41
2022-12-03T17:33:41.654Z,96160.03
2022-12-03T17:35:39.889Z,96151.25
2022-12-03T17:37:38.466Z,96154.81
2022-12-03T17:39:40.495Z,96145.59
2022-12-03T17:41:38.564Z,96150.69
2022-12-03T17:43:36.880Z,96153.34
2022-12-03T17:45:36.842Z,96151.56
2022-12-03T17:47:35.193Z,96148.28
2022-12-03T17:49:33.544Z,96152.81
2022-12-03T17:51:31.915Z,96157.31
2022-12-03T17:53:31.954Z,96151.94
2022-12-03T17:55:38.571Z,96153.59
2022-12-03T17:57:43.457Z,96153.50
2022-12-03T17:59:41.839Z,96158.72
2022-12-03T18:01:41.688Z,96156.91
2022-12-03T18:03:39.960Z,96151.94
2022-12-03T18:05:38.726Z,96159.91
2022-12-03T18:07:36.985Z,96157.53
2022-12-03T18:09:35.418Z,96164.69
2022-12-03T18:11:35.206Z,96162.25
2022-12-03T18:13:33.704Z,96159.94
2022-12-03T18:15:32.484Z,96164.19
2022-12-03T18:17:30.861Z,96158.28
2022-12-03T18:19:29.250Z,96163.66
2022-12-03T18:21:28.210Z,96167.19
2022-12-03T18:23:26.594Z,96165.56
2022-12-03T18:25:25.196Z,96163.81
2022-12-03T18:27:26.583Z,96164.56
2022-12-03T18:29:24.929Z,96168.72
2022-12-03T18:31:23.604Z,96161.47
2022-12-03T18:33:23.489Z,96164.03
2022-12-03T18:35:21.890Z,96157.03
2022-12-03T18:37:20.136Z,96177.13
2022-12-03T18:39:25.955Z,96160.63
2022-12-03T18:41:25.828Z,96166.84
2022-12-03T18:43:29.048Z,96177.97
2022-12-03T18:45:27.560Z,96175.53
2022-12-03T18:47:29.244Z,96174.63
2022-12-03T18:49:27.622Z,96163.25
2022-12-03T18:51:26.007Z,96179.91
2022-12-03T18:53:24.285Z,96171.06
2022-12-03T18:55:23.287Z,96175.63
2022-12-03T18:57:21.716Z,96177.13
2022-12-03T18:59:21.305Z,96177.97
2022-12-03T19:01:22.611Z,96175.53
2022-12-03T19:03:21.203Z,96171.16
2022-12-03T19:05:19.693Z,96182.50
2022-12-03T19:07:17.868Z,96182.59
2022-12-03T19:09:16.701Z,96176.69
2022-12-03T19:11:15.171Z,96181.13
2022-12-03T19:13:13.392Z,96184.59
2022-12-03T19:15:13.463Z,96181.13
2022-12-03T19:17:11.852Z,96191.59
2022-12-03T19:19:10.672Z,96185.47
2022-12-03T19:21:10.867Z,96188.06
2022-12-03T19:23:09.619Z,96194.13
2022-12-03T19:25:08.624Z,96180.31
2022-12-03T19:27:06.824Z,96185.69
2022-12-03T19:29:05.342Z,96188.22
2022-12-03T19:31:07.381Z,96188.53
2022-12-03T19:33:05.895Z,96193.06
2022-12-03T19:35:05.347Z,96188.78
2022-12-03T19:37:03.677Z,96181.09
2022-12-03T19:39:02.243Z,96200.44
2022-12-03T19:41:02.331Z,96184.78
2022-12-03T19:43:00.630Z,96191.09
2022-12-03T19:44:58.966Z,96180.31
2022-12-03T19:46:59.285Z,96182.09
2022-12-03T19:48:58.146Z,96177.72
2022-12-03T19:51:13.560Z,96187.16
2022-12-03T19:53:14.691Z,96195.66
2022-12-03T19:55:13.727Z,96191.63
2022-12-03T19:57:12.138Z,96190.75
2022-12-03T19:59:13.472Z,96191.81
2022-12-03T20:01:13.865Z,96187.69
2022-12-03T20:03:13.653Z,96185.06
2022-12-03T20:05:11.926Z,96193.00
2022-12-03T20:07:10.190Z,96191.38
2022-12-03T20:09:12.136Z,96189.69
2022-12-03T20:11:12.368Z,96191.59
2022-12-03T20:13:10.497Z,96195.16
2022-12-03T20:15:10.406Z,96190.91
2022-12-03T20:17:08.720Z,96190.97
2022-12-03T20:19:11.242Z,96200.50
2022-12-03T20:21:11.050Z,96197.75
2022-12-03T20:23:09.181Z,96196.00
2022-12-03T20:25:10.224Z,96192.44
2022-12-03T20:27:08.498Z,96190.63
2022-12-03T20:29:06.770Z,96189.84
2022-12-03T20:31:09.660Z,96196.50
2022-12-03T20:33:08.120Z,96193.69
2022-12-03T20:35:11.675Z,96193.53
2022-12-03T20:37:10.003Z,96194.13
2022-12-03T20:39:09.304Z,96194.13
2022-12-03T20:41:10.200Z,96186.41
2022-12-03T20:43:08.547Z,96191.44
2022-12-03T20:45:08.171Z,96190.59
2022-12-03T20:47:06.481Z,96198.28
2022-12-03T20:49:05.546Z,96207.78
2022-12-03T20:51:07.184Z,96198.22
2022-12-03T20:53:23.630Z,96200.97
2022-12-03T20:55:22.817Z,96200.06
2022-12-03T20:57:21.015Z,96200.75
2022-12-03T20:59:19.205Z,96199.91
2022-12-03T21:01:20.182Z,96190.22
2022-12-03T21:03:18.516Z,96195.44
2022-12-03T21:05:17.157Z,96194.69
2022-12-03T21:07:16.859Z,96198.13
2022-12-03T21:09:15.166Z,96193.84
2022-12-03T21:11:15.788Z,96192.47
2022-12-03T21:13:15.540Z,96197.84
2022-12-03T21:15:13.790Z,96191.97
2022-12-03T21:17:12.256Z,96187.09
2022-12-03T21:19:10.593Z,96202.22
2022-12-03T21:21:11.716Z,96192.91
2022-12-03T21:23:11.236Z,96199.97
2022-12-03T21:25:10.012Z,96195.66
2022-12-03T21:27:08.278Z,96201.06
2022-12-03T21:29:06.766Z,96199.34
2022-12-03T21:31:07.186Z,96203.81
2022-12-03T21:33:05.662Z,96199.44
2022-12-03T21:35:06.198Z,96206.47
2022-12-03T21:37:04.977Z,96213.31
2022-12-03T21:39:04.882Z,96208.00
2022-12-03T21:41:04.079Z,96203.81
2022-12-03T21:43:02.522Z,96209.78
2022-12-03T21:45:00.752Z,96208.25
2022-12-03T21:47:10.256Z,96202.97
2022-12-03T21:49:12.226Z,96215.84
2022-12-03T21:51:12.255Z,96211.69
2022-12-03T21:53:11.247Z,96205.72
2022-12-03T21:55:11.601Z,96211.63
2022-12-03T21:57:09.749Z,96211.41
2022-12-03T21:59:08.255Z,96214.16
2022-12-03T22:01:14.037Z,96217.75
2022-12-03T22:03:12.554Z,96207.63
2022-12-03T22:05:12.155Z,96210.53
2022-12-03T22:07:10.256Z,96205.41
2022-12-03T22:09:08.511Z,96202.84
2022-12-03T22:11:09.961Z,96208.16
2022-12-03T22:13:08.280Z,96203.94
2022-12-03T22:15:07.626Z,96202.16
2022-12-03T22:17:05.696Z,96205.47
2022-12-03T22:19:03.980Z,96206.53
2022-12-03T22:21:04.993Z,96205.75
2022-12-03T22:23:03.596Z,96199.22
2022-12-03T22:25:01.770Z,96194.16
2022-12-03T22:27:02.069Z,96187.47
2022-12-03T22:29:00.814Z,96199.66
2022-12-03T22:30:59.366Z,96197.97
2022-12-03T22:32:57.604Z,96193.81
2022-12-03T22:34:55.989Z,96194.88
2022-12-03T22:36:54.293Z,96189.81
2022-12-03T22:38:52.675Z,96191.44
2022-12-03T22:40:51.177Z,96189.66
2022-12-03T22:42:51.357Z,96186.00
2022-12-03T22:44:49.610Z,96184.31
2022-12-03T22:46:47.871Z,96186.22
2022-12-03T22:48:47.492Z,96187.81
2022-12-03T22:50:46.967Z,96180.78
2022-12-03T22:52:45.110Z,96184.22
2022-12-03T22:54:46.316Z,96185.16
2022-12-03T22:56:44.524Z,96182.59
2022-12-03T22:58:44.177Z,96178.88
2022-12-03T23:00:42.618Z,96178.88
2022-12-03T23:02:40.776Z,96177.25
2022-12-03T23:04:39.134Z,96173.06
2022-12-03T23:06:38.041Z,96183.31
2022-12-03T23:08:36.274Z,96172.19
2022-12-03T23:10:35.314Z,96171.28
2022-12-03T23:12:33.423Z,96174.72
2022-12-03T23:14:33.013Z,96175.66
2022-12-03T23:16:33.173Z,96175.72
2022-12-03T23:18:31.555Z,96172.97
2022-12-03T23:20:30.210Z,96175.56
2022-12-03T23:22:28.448Z,96172.97
2022-12-03T23:24:27.387Z,96166.78
2022-12-03T23:26:26.045Z,96166.00
2022-12-03T23:28:24.414Z,96168.53
2022-12-03T23:30:24.143Z,96170.34
2022-12-03T23:32:22.367Z,96170.34